sensor_id;sensor_type;location;lat;lon;timestamp;pressure;altitude;pressure_sealevel;temperature;humidity
75359;BME280;64046;51.978;5.934;2023-06-19T00:00:47;100670.53;;;27.59;42.60
75359;BME280;64046;51.978;5.934;2023-06-19T00:03:20;100669.09;;;27.72;42.41
75359;BME280;64046;51.978;5.934;2023-06-19T00:05:50;100663.69;;;27.57;42.90
75359;BME280;64046;51.978;5.934;2023-06-19T00:08:24;100667.66;;;27.61;42.79
75359;BME280;64046;51.978;5.934;2023-06-19T00:10:56;100672.91;;;27.62;42.66
75359;BME280;64046;51.978;5.934;2023-06-19T00:13:28;100662.78;;;27.65;43.01
75359;BME280;64046;51.978;5.934;2023-06-19T00:15:59;100669.66;;;27.67;42.77
75359;BME280;64046;51.978;5.934;2023-06-19T00:18:34;100661.75;;;27.66;43.02
75359;BME280;64046;51.978;5.934;2023-06-19T00:21:13;100660.19;;;27.71;43.04
75359;BME280;64046;51.978;5.934;2023-06-19T00:23:50;100667.31;;;27.64;43.16
75359;BME280;64046;51.978;5.934;2023-06-19T00:26:23;100674.28;;;27.58;43.61
75359;BME280;64046;51.978;5.934;2023-06-19T00:28:52;100675.72;;;27.46;44.26
75359;BME280;64046;51.978;5.934;2023-06-19T00:31:25;100677.22;;;27.49;44.60
75359;BME280;64046;51.978;5.934;2023-06-19T00:33:58;100687.75;;;27.58;44.42
75359;BME280;64046;51.978;5.934;2023-06-19T00:36:29;100696.13;;;27.40;45.16
75359;BME280;64046;51.978;5.934;2023-06-19T00:38:59;100695.00;;;27.35;45.61
75359;BME280;64046;51.978;5.934;2023-06-19T00:41:37;100701.91;;;27.52;45.45
75359;BME280;64046;51.978;5.934;2023-06-19T00:44:19;100694.00;;;27.51;45.93
75359;BME280;64046;51.978;5.934;2023-06-19T00:46:57;100698.59;;;27.65;45.45
75359;BME280;64046;51.978;5.934;2023-06-19T00:49:33;100699.88;;;27.54;46.43
75359;BME280;64046;51.978;5.934;2023-06-19T00:52:05;100706.28;;;27.53;46.29
75359;BME280;64046;51.978;5.934;2023-06-19T00:54:36;100705.44;;;27.53;46.08
75359;BME280;64046;51.978;5.934;2023-06-19T00:57:11;100705.91;;;27.56;46.46
75359;BME280;64046;51.978;5.934;2023-06-19T00:59:42;100704.75;;;27.36;46.81
75359;BME280;64046;51.978;5.934;2023-06-19T01:02:13;100707.03;;;27.47;46.59
75359;BME280;64046;51.978;5.934;2023-06-19T01:04:49;100713.53;;;27.53;47.05
75359;BME280;64046;51.978;5.934;2023-06-19T01:07:24;100709.78;;;27.54;46.99
75359;BME280;64046;51.978;5.934;2023-06-19T01:09:58;100707.97;;;27.54;46.67
75359;BME280;64046;51.978;5.934;2023-06-19T01:12:37;100715.09;;;27.62;46.70
75359;BME280;64046;51.978;5.934;2023-06-19T01:15:12;100714.06;;;27.48;47.01
75359;BME280;64046;51.978;5.934;2023-06-19T01:17:44;100720.66;;;27.45;46.90
75359;BME280;64046;51.978;5.934;2023-06-19T01:20:23;100721.69;;;27.59;46.86
75359;BME280;64046;51.978;5.934;2023-06-19T01:23:04;100721.41;;;27.54;46.96
75359;BME280;64046;51.978;5.934;2023-06-19T01:25:35;100734.00;;;27.39;47.50
75359;BME280;64046;51.978;5.934;2023-06-19T01:28:07;100726.69;;;27.48;47.04
75359;BME280;64046;51.978;5.934;2023-06-19T01:30:42;100722.78;;;27.50;47.09
75359;BME280;64046;51.978;5.934;2023-06-19T01:33:16;100726.69;;;27.48;46.94
75359;BME280;64046;51.978;5.934;2023-06-19T01:35:52;100727.63;;;27.32;47.41
75359;BME280;64046;51.978;5.934;2023-06-19T01:38:31;100728.91;;;27.44;47.31
75359;BME280;64046;51.978;5.934;2023-06-19T01:41:07;100731.69;;;27.27;47.20
75359;BME280;64046;51.978;5.934;2023-06-19T01:43:39;100725.94;;;27.31;46.80
75359;BME280;64046;51.978;5.934;2023-06-19T01:46:12;100728.53;;;27.24;47.43
75359;BME280;64046;51.978;5.934;2023-06-19T01:48:50;100728.28;;;27.34;47.01
75359;BME280;64046;51.978;5.934;2023-06-19T01:51:22;100734.44;;;27.19;47.73
75359;BME280;64046;51.978;5.934;2023-06-19T01:53:57;100733.91;;;27.24;47.57
75359;BME280;64046;51.978;5.934;2023-06-19T01:56:26;100747.84;;;27.04;48.28
75359;BME280;64046;51.978;5.934;2023-06-19T01:58:57;100742.47;;;27.04;48.37
75359;BME280;64046;51.978;5.934;2023-06-19T02:01:28;100741.13;;;27.00;48.44
75359;BME280;64046;51.978;5.934;2023-06-19T02:03:58;100744.72;;;27.16;47.68
75359;BME280;64046;51.978;5.934;2023-06-19T02:06:32;100743.56;;;27.41;47.08
75359;BME280;64046;51.978;5.934;2023-06-19T02:09:15;100745.59;;;27.39;47.63
75359;BME280;64046;51.978;5.934;2023-06-19T02:11:46;100748.41;;;26.91;48.77
75359;BME280;64046;51.978;5.934;2023-06-19T02:14:17;100749.31;;;26.84;49.19
75359;BME280;64046;51.978;5.934;2023-06-19T02:16:47;100765.66;;;26.74;49.73
75359;BME280;64046;51.978;5.934;2023-06-19T02:19:20;100765.13;;;26.79;49.51
75359;BME280;64046;51.978;5.934;2023-06-19T02:21:53;100771.31;;;26.79;50.24
75359;BME280;64046;51.978;5.934;2023-06-19T02:24:29;100771.22;;;27.04;49.63
75359;BME280;64046;51.978;5.934;2023-06-19T02:27:00;100777.84;;;26.85;49.95
75359;BME280;64046;51.978;5.934;2023-06-19T02:29:33;100783.97;;;26.62;50.94
75359;BME280;64046;51.978;5.934;2023-06-19T02:32:06;100783.31;;;26.60;51.77
75359;BME280;64046;51.978;5.934;2023-06-19T02:34:39;100779.31;;;26.48;52.87
75359;BME280;64046;51.978;5.934;2023-06-19T02:37:21;100782.69;;;26.50;52.82
75359;BME280;64046;51.978;5.934;2023-06-19T02:39:53;100784.75;;;26.39;53.36
75359;BME280;64046;51.978;5.934;2023-06-19T02:42:25;100785.97;;;26.20;54.05
75359;BME280;64046;51.978;5.934;2023-06-19T02:44:54;100783.13;;;26.14;54.42
75359;BME280;64046;51.978;5.934;2023-06-19T02:47:34;100794.72;;;26.14;54.78
75359;BME280;64046;51.978;5.934;2023-06-19T02:50:07;100799.59;;;26.11;56.06
75359;BME280;64046;51.978;5.934;2023-06-19T02:52:38;100802.59;;;25.91;56.81
75359;BME280;64046;51.978;5.934;2023-06-19T02:55:12;100802.47;;;26.01;57.67
75359;BME280;64046;51.978;5.934;2023-06-19T02:57:43;100814.03;;;25.77;58.16
75359;BME280;64046;51.978;5.934;2023-06-19T03:00:14;100816.53;;;25.86;59.05
75359;BME280;64046;51.978;5.934;2023-06-19T03:02:52;100820.72;;;25.72;59.35
75359;BME280;64046;51.978;5.934;2023-06-19T03:05:23;100819.22;;;25.70;60.22
75359;BME280;64046;51.978;5.934;2023-06-19T03:07:57;100824.25;;;25.81;60.61
75359;BME280;64046;51.978;5.934;2023-06-19T03:10:30;100824.41;;;25.80;60.94
75359;BME280;64046;51.978;5.934;2023-06-19T03:13:01;100824.56;;;25.62;61.62
75359;BME280;64046;51.978;5.934;2023-06-19T03:15:34;100821.88;;;25.62;62.04
75359;BME280;64046;51.978;5.934;2023-06-19T03:18:03;100817.38;;;25.62;62.23
75359;BME280;64046;51.978;5.934;2023-06-19T03:20:39;100821.56;;;25.73;62.01
75359;BME280;64046;51.978;5.934;2023-06-19T03:23:11;100820.38;;;25.67;62.80
75359;BME280;64046;51.978;5.934;2023-06-19T03:25:46;100817.53;;;25.69;62.44
75359;BME280;64046;51.978;5.934;2023-06-19T03:28:18;100821.41;;;25.66;63.04
75359;BME280;64046;51.978;5.934;2023-06-19T03:30:50;100822.41;;;25.65;63.40
75359;BME280;64046;51.978;5.934;2023-06-19T03:33:25;100819.88;;;25.64;63.99
75359;BME280;64046;51.978;5.934;2023-06-19T03:35:55;100824.22;;;25.48;64.61
75359;BME280;64046;51.978;5.934;2023-06-19T03:38:53;100822.41;;;25.65;64.20
75359;BME280;64046;51.978;5.934;2023-06-19T03:41:34;100816.34;;;25.63;64.91
75359;BME280;64046;51.978;5.934;2023-06-19T03:44:05;100820.19;;;25.44;65.16
75359;BME280;64046;51.978;5.934;2023-06-19T03:46:44;100829.09;;;25.45;65.82
75359;BME280;64046;51.978;5.934;2023-06-19T03:49:16;100832.78;;;25.60;65.66
75359;BME280;64046;51.978;5.934;2023-06-19T03:51:52;100840.84;;;25.60;65.88
75359;BME280;64046;51.978;5.934;2023-06-19T03:54:23;100837.81;;;25.47;66.61
75359;BME280;64046;51.978;5.934;2023-06-19T03:56:56;100845.22;;;25.61;66.26
75359;BME280;64046;51.978;5.934;2023-06-19T03:59:27;100847.38;;;25.49;66.76
75359;BME280;64046;51.978;5.934;2023-06-19T04:02:00;100849.38;;;25.55;67.04
75359;BME280;64046;51.978;5.934;2023-06-19T04:04:33;100844.88;;;25.72;66.98
75359;BME280;64046;51.978;5.934;2023-06-19T04:07:07;100851.09;;;25.65;67.19
75359;BME280;64046;51.978;5.934;2023-06-19T04:09:42;100845.53;;;25.58;67.40
75359;BME280;64046;51.978;5.934;2023-06-19T04:12:16;100845.38;;;25.68;67.42
75359;BME280;64046;51.978;5.934;2023-06-19T04:14:45;100848.88;;;25.44;68.59
75359;BME280;64046;51.978;5.934;2023-06-19T04:17:17;100856.75;;;25.45;69.29
75359;BME280;64046;51.978;5.934;2023-06-19T04:19:50;100857.09;;;25.50;68.77
75359;BME280;64046;51.978;5.934;2023-06-19T04:22:25;100857.28;;;25.57;68.64
75359;BME280;64046;51.978;5.934;2023-06-19T04:24:55;100860.78;;;25.41;69.50
75359;BME280;64046;51.978;5.934;2023-06-19T04:27:28;100864.66;;;25.55;69.14
75359;BME280;64046;51.978;5.934;2023-06-19T04:30:03;100870.84;;;25.55;69.68
75359;BME280;64046;51.978;5.934;2023-06-19T04:32:35;100877.41;;;25.61;69.66
75359;BME280;64046;51.978;5.934;2023-06-19T04:35:08;100877.56;;;25.60;69.98
75359;BME280;64046;51.978;5.934;2023-06-19T04:37:38;100878.53;;;25.50;70.63
75359;BME280;64046;51.978;5.934;2023-06-19T04:40:11;100881.09;;;25.52;70.85
75359;BME280;64046;51.978;5.934;2023-06-19T04:42:43;100888.47;;;25.58;70.67
75359;BME280;64046;51.978;5.934;2023-06-19T04:45:12;100885.09;;;25.39;71.80
75359;BME280;64046;51.978;5.934;2023-06-19T04:47:43;100886.06;;;25.38;72.46
75359;BME280;64046;51.978;5.934;2023-06-19T04:50:13;100894.13;;;25.38;72.61
75359;BME280;64046;51.978;5.934;2023-06-19T04:52:46;100890.81;;;25.53;72.78
75359;BME280;64046;51.978;5.934;2023-06-19T04:55:18;100896.00;;;25.54;73.31
75359;BME280;64046;51.978;5.934;2023-06-19T04:57:56;100895.84;;;25.56;73.07
75359;BME280;64046;51.978;5.934;2023-06-19T05:00:28;100898.66;;;25.38;73.74
75359;BME280;64046;51.978;5.934;2023-06-19T05:02:58;100897.50;;;25.41;73.98
75359;BME280;64046;51.978;5.934;2023-06-19T05:05:28;100904.72;;;25.48;74.25
75359;BME280;64046;51.978;5.934;2023-06-19T05:08:01;100901.72;;;25.60;74.04
75359;BME280;64046;51.978;5.934;2023-06-19T05:10:41;100898.22;;;25.67;73.60
75359;BME280;64046;51.978;5.934;2023-06-19T05:13:14;100907.94;;;25.60;74.60
75359;BME280;64046;51.978;5.934;2023-06-19T05:15:48;100915.13;;;25.51;75.05
75359;BME280;64046;51.978;5.934;2023-06-19T05:18:19;100920.78;;;25.40;75.82
75359;BME280;64046;51.978;5.934;2023-06-19T05:20:50;100918.97;;;25.41;75.68
75359;BME280;64046;51.978;5.934;2023-06-19T05:23:21;100922.50;;;25.49;76.67
75359;BME280;64046;51.978;5.934;2023-06-19T05:25:51;100925.81;;;25.35;77.38
75359;BME280;64046;51.978;5.934;2023-06-19T05:28:23;100932.38;;;25.49;77.43
75359;BME280;64046;51.978;5.934;2023-06-19T05:30:52;100931.00;;;25.36;78.20
75359;BME280;64046;51.978;5.934;2023-06-19T05:33:24;100930.06;;;25.54;78.21
75359;BME280;64046;51.978;5.934;2023-06-19T05:35:58;100930.34;;;25.43;79.46
75359;BME280;64046;51.978;5.934;2023-06-19T05:38:33;100924.06;;;25.26;81.61
75359;BME280;64046;51.978;5.934;2023-06-19T05:41:03;100926.75;;;25.26;82.39
75359;BME280;64046;51.978;5.934;2023-06-19T05:43:37;100927.84;;;25.41;82.25
75359;BME280;64046;51.978;5.934;2023-06-19T05:46:07;100923.06;;;25.27;82.85
75359;BME280;64046;51.978;5.934;2023-06-19T05:48:38;100923.56;;;25.30;82.32
75359;BME280;64046;51.978;5.934;2023-06-19T05:51:09;100934.38;;;25.38;81.87
75359;BME280;64046;51.978;5.934;2023-06-19T05:53:43;100936.56;;;25.43;81.29
75359;BME280;64046;51.978;5.934;2023-06-19T05:56:12;100940.78;;;25.54;81.23
75359;BME280;64046;51.978;5.934;2023-06-19T05:58:50;100936.16;;;25.81;80.01
75359;BME280;64046;51.978;5.934;2023-06-19T06:01:21;100942.88;;;25.85;79.41
75359;BME280;64046;51.978;5.934;2023-06-19T06:03:50;100942.50;;;25.71;79.82
75359;BME280;64046;51.978;5.934;2023-06-19T06:06:22;100945.88;;;25.73;79.83
75359;BME280;64046;51.978;5.934;2023-06-19T06:08:54;100946.72;;;25.74;80.02
75359;BME280;64046;51.978;5.934;2023-06-19T06:11:28;100943.56;;;25.95;78.74
75359;BME280;64046;51.978;5.934;2023-06-19T06:14:00;100954.28;;;25.87;78.80
75359;BME280;64046;51.978;5.934;2023-06-19T06:16:29;100951.72;;;25.69;79.38
75359;BME280;64046;51.978;5.934;2023-06-19T06:19:02;100956.25;;;25.68;79.66
75359;BME280;64046;51.978;5.934;2023-06-19T06:21:33;100960.63;;;25.69;79.20
75359;BME280;64046;51.978;5.934;2023-06-19T06:24:04;100964.84;;;25.80;79.10
75359;BME280;64046;51.978;5.934;2023-06-19T06:26:36;100969.19;;;25.65;79.88
75359;BME280;64046;51.978;5.934;2023-06-19T06:29:17;100976.25;;;25.82;79.69
75359;BME280;64046;51.978;5.934;2023-06-19T06:31:48;100976.75;;;25.86;79.75
75359;BME280;64046;51.978;5.934;2023-06-19T06:34:21;100977.56;;;25.70;80.07
75359;BME280;64046;51.978;5.934;2023-06-19T06:36:56;100976.22;;;25.66;80.70
75359;BME280;64046;51.978;5.934;2023-06-19T06:39:34;100980.47;;;25.85;79.77
75359;BME280;64046;51.978;5.934;2023-06-19T06:42:06;100978.72;;;25.67;80.95
75359;BME280;64046;51.978;5.934;2023-06-19T06:44:40;100977.75;;;25.77;80.05
75359;BME280;64046;51.978;5.934;2023-06-19T06:47:15;100984.81;;;25.78;80.29
75359;BME280;64046;51.978;5.934;2023-06-19T06:49:46;100987.81;;;25.74;80.44
75359;BME280;64046;51.978;5.934;2023-06-19T06:52:17;100988.25;;;25.62;80.46
75359;BME280;64046;51.978;5.934;2023-06-19T06:54:57;100999.16;;;25.60;80.36
75359;BME280;64046;51.978;5.934;2023-06-19T06:57:28;101001.03;;;25.60;80.31
75359;BME280;64046;51.978;5.934;2023-06-19T07:00:02;101002.91;;;25.76;79.23
75359;BME280;64046;51.978;5.934;2023-06-19T07:02:38;101012.81;;;25.75;79.75
75359;BME280;64046;51.978;5.934;2023-06-19T07:05:10;101016.34;;;25.76;79.67
75359;BME280;64046;51.978;5.934;2023-06-19T07:07:40;101010.59;;;25.62;79.56
75359;BME280;64046;51.978;5.934;2023-06-19T07:10:12;101017.53;;;25.81;78.99
75359;BME280;64046;51.978;5.934;2023-06-19T07:12:47;101024.63;;;25.90;78.44
75359;BME280;64046;51.978;5.934;2023-06-19T07:15:23;101023.25;;;25.95;78.17
75359;BME280;64046;51.978;5.934;2023-06-19T07:17:54;101037.19;;;25.90;78.68
75359;BME280;64046;51.978;5.934;2023-06-19T07:20:27;101034.00;;;25.86;78.13
75359;BME280;64046;51.978;5.934;2023-06-19T07:22:58;101037.84;;;25.84;77.43
75359;BME280;64046;51.978;5.934;2023-06-19T07:25:28;101042.50;;;25.73;76.36
75359;BME280;64046;51.978;5.934;2023-06-19T07:28:00;101042.31;;;25.67;75.94
75359;BME280;64046;51.978;5.934;2023-06-19T07:30:35;101042.34;;;25.83;74.36
75359;BME280;64046;51.978;5.934;2023-06-19T07:33:06;101043.00;;;25.77;73.38
75359;BME280;64046;51.978;5.934;2023-06-19T07:35:35;101041.53;;;25.83;71.87
75359;BME280;64046;51.978;5.934;2023-06-19T07:38:05;101047.84;;;26.08;69.26
75359;BME280;64046;51.978;5.934;2023-06-19T07:40:40;101045.22;;;26.41;67.03
75359;BME280;64046;51.978;5.934;2023-06-19T07:43:13;101053.97;;;26.76;65.28
75359;BME280;64046;51.978;5.934;2023-06-19T07:45:51;101049.88;;;27.21;62.28
75359;BME280;64046;51.978;5.934;2023-06-19T07:48:20;101056.78;;;27.07;62.27
75359;BME280;64046;51.978;5.934;2023-06-19T07:50:54;101060.31;;;27.16;61.64
75359;BME280;64046;51.978;5.934;2023-06-19T07:53:30;101069.06;;;27.10;60.73
75359;BME280;64046;51.978;5.934;2023-06-19T07:56:00;101086.03;;;27.10;59.33
75359;BME280;64046;51.978;5.934;2023-06-19T07:58:29;101087.25;;;27.00;58.66
75359;BME280;64046;51.978;5.934;2023-06-19T08:01:05;101087.19;;;27.24;58.31
75359;BME280;64046;51.978;5.934;2023-06-19T08:03:37;101087.06;;;27.34;57.50
75359;BME280;64046;51.978;5.934;2023-06-19T08:06:12;101098.13;;;27.31;57.47
75359;BME280;64046;51.978;5.934;2023-06-19T08:08:42;101110.78;;;27.14;56.62
75359;BME280;64046;51.978;5.934;2023-06-19T08:11:12;101107.72;;;27.09;56.08
75359;BME280;64046;51.978;5.934;2023-06-19T08:13:46;101112.41;;;27.23;55.83
75359;BME280;64046;51.978;5.934;2023-06-19T08:16:20;101112.06;;;27.26;55.71
75359;BME280;64046;51.978;5.934;2023-06-19T08:18:52;101095.97;;;27.02;56.02
75359;BME280;64046;51.978;5.934;2023-06-19T08:21:27;101107.56;;;27.10;55.87
75359;BME280;64046;51.978;5.934;2023-06-19T08:24:01;101100.19;;;26.96;55.90
75359;BME280;64046;51.978;5.934;2023-06-19T08:26:31;101109.56;;;27.25;55.08
75359;BME280;64046;51.978;5.934;2023-06-19T08:29:04;101106.88;;;27.25;54.59
75359;BME280;64046;51.978;5.934;2023-06-19T08:31:37;101113.94;;;27.26;54.32
75359;BME280;64046;51.978;5.934;2023-06-19T08:34:06;101126.38;;;27.27;53.71
75359;BME280;64046;51.978;5.934;2023-06-19T08:36:36;101127.41;;;27.18;53.81
75359;BME280;64046;51.978;5.934;2023-06-19T08:39:15;101128.41;;;27.25;53.69
75359;BME280;64046;51.978;5.934;2023-06-19T08:41:47;101142.00;;;27.15;53.53
75359;BME280;64046;51.978;5.934;2023-06-19T08:44:17;101135.97;;;27.30;53.33
75359;BME280;64046;51.978;5.934;2023-06-19T08:46:49;101142.69;;;27.58;52.77
75359;BME280;64046;51.978;5.934;2023-06-19T08:49:19;101140.16;;;27.57;52.74
75359;BME280;64046;51.978;5.934;2023-06-19T08:51:48;101134.78;;;27.57;52.94
75359;BME280;64046;51.978;5.934;2023-06-19T08:54:19;101135.25;;;27.69;52.71
75359;BME280;64046;51.978;5.934;2023-06-19T08:56:49;101135.59;;;27.66;52.50
75359;BME280;64046;51.978;5.934;2023-06-19T08:59:28;101125.47;;;27.68;52.97
75359;BME280;64046;51.978;5.934;2023-06-19T09:02:00;101119.09;;;27.69;53.02
75359;BME280;64046;51.978;5.934;2023-06-19T09:04:32;101112.00;;;27.68;53.18
75359;BME280;64046;51.978;5.934;2023-06-19T09:07:06;101122.84;;;27.99;52.83
75359;BME280;64046;51.978;5.934;2023-06-19T09:09:48;101129.94;;;27.92;52.92
75359;BME280;64046;51.978;5.934;2023-06-19T09:12:19;101127.13;;;27.77;52.91
75359;BME280;64046;51.978;5.934;2023-06-19T09:15:02;101132.03;;;27.65;53.56
75359;BME280;64046;51.978;5.934;2023-06-19T09:17:44;101137.06;;;27.76;53.68
75359;BME280;64046;51.978;5.934;2023-06-19T09:20:32;101140.44;;;27.78;53.29
75359;BME280;64046;51.978;5.934;2023-06-19T09:23:06;101131.56;;;27.53;53.98
75359;BME280;64046;51.978;5.934;2023-06-19T09:25:49;101137.84;;;27.85;53.37
75359;BME280;64046;51.978;5.934;2023-06-19T09:28:21;101143.28;;;27.77;53.59
75359;BME280;64046;51.978;5.934;2023-06-19T09:30:57;101138.72;;;27.86;53.70
75359;BME280;64046;51.978;5.934;2023-06-19T09:33:30;101141.38;;;28.02;53.75
75359;BME280;64046;51.978;5.934;2023-06-19T09:36:07;101147.25;;;28.06;53.18
75359;BME280;64046;51.978;5.934;2023-06-19T09:38:37;101159.13;;;28.20;52.87
75359;BME280;64046;51.978;5.934;2023-06-19T09:41:10;101157.72;;;28.32;52.82
75359;BME280;64046;51.978;5.934;2023-06-19T09:43:47;101168.47;;;28.72;51.43
75359;BME280;64046;51.978;5.934;2023-06-19T09:46:19;101178.13;;;28.66;51.23
75359;BME280;64046;51.978;5.934;2023-06-19T09:49:01;101180.59;;;28.76;50.28
75359;BME280;64046;51.978;5.934;2023-06-19T09:51:36;101172.75;;;28.58;50.50
75359;BME280;64046;51.978;5.934;2023-06-19T09:54:09;101171.72;;;28.67;50.48
75359;BME280;64046;51.978;5.934;2023-06-19T09:56:43;101161.31;;;28.56;50.28
75359;BME280;64046;51.978;5.934;2023-06-19T09:59:20;101168.16;;;28.67;49.92
75359;BME280;64046;51.978;5.934;2023-06-19T10:02:05;101168.66;;;28.70;49.55
75359;BME280;64046;51.978;5.934;2023-06-19T10:04:52;101186.16;;;28.97;49.16
75359;BME280;64046;51.978;5.934;2023-06-19T10:07:26;101188.78;;;28.82;49.51
75359;BME280;64046;51.978;5.934;2023-06-19T10:10:07;101184.44;;;28.81;49.87
75359;BME280;64046;51.978;5.934;2023-06-19T10:12:42;101181.66;;;28.90;49.28
75359;BME280;64046;51.978;5.934;2023-06-19T10:15:16;101184.22;;;29.06;48.23
75359;BME280;64046;51.978;5.934;2023-06-19T10:17:53;101197.13;;;28.96;48.23
75359;BME280;64046;51.978;5.934;2023-06-19T10:20:31;101188.25;;;28.87;48.11
75359;BME280;64046;51.978;5.934;2023-06-19T10:23:07;101185.97;;;28.76;48.69
75359;BME280;64046;51.978;5.934;2023-06-19T10:25:38;101182.75;;;28.80;48.63
75359;BME280;64046;51.978;5.934;2023-06-19T10:28:27;101177.75;;;28.92;48.15
75359;BME280;64046;51.978;5.934;2023-06-19T10:30:59;101182.38;;;28.83;48.38
75359;BME280;64046;51.978;5.934;2023-06-19T10:33:31;101179.06;;;28.96;47.87
75359;BME280;64046;51.978;5.934;2023-06-19T10:36:22;101190.63;;;29.28;47.01
75359;BME280;64046;51.978;5.934;2023-06-19T10:38:52;101191.00;;;29.02;47.83
75359;BME280;64046;51.978;5.934;2023-06-19T10:41:25;101191.91;;;28.94;47.68
75359;BME280;64046;51.978;5.934;2023-06-19T10:44:01;101190.28;;;28.85;47.54
75359;BME280;64046;51.978;5.934;2023-06-19T10:46:37;101185.38;;;28.89;48.11
75359;BME280;64046;51.978;5.934;2023-06-19T10:49:08;101193.94;;;28.92;47.69
75359;BME280;64046;51.978;5.934;2023-06-19T10:51:42;101183.56;;;29.04;47.41
75359;BME280;64046;51.978;5.934;2023-06-19T10:54:15;101180.53;;;29.07;47.46
75359;BME280;64046;51.978;5.934;2023-06-19T10:56:49;101175.88;;;29.16;47.39
75359;BME280;64046;51.978;5.934;2023-06-19T10:59:20;101179.47;;;29.08;46.73
75359;BME280;64046;51.978;5.934;2023-06-19T11:01:55;101174.16;;;29.23;46.96
75359;BME280;64046;51.978;5.934;2023-06-19T11:04:25;101162.41;;;29.16;46.66
75359;BME280;64046;51.978;5.934;2023-06-19T11:07:07;101167.78;;;29.39;46.35
75359;BME280;64046;51.978;5.934;2023-06-19T11:09:56;101170.47;;;29.39;45.94
75359;BME280;64046;51.978;5.934;2023-06-19T11:12:35;101179.31;;;29.33;46.28
75359;BME280;64046;51.978;5.934;2023-06-19T11:15:09;101175.81;;;29.24;46.11
75359;BME280;64046;51.978;5.934;2023-06-19T11:17:42;101177.44;;;29.10;45.77
75359;BME280;64046;51.978;5.934;2023-06-19T11:20:16;101170.56;;;29.08;46.02
75359;BME280;64046;51.978;5.934;2023-06-19T11:22:57;101163.38;;;29.38;45.69
75359;BME280;64046;51.978;5.934;2023-06-19T11:25:35;101163.13;;;29.48;45.12
75359;BME280;64046;51.978;5.934;2023-06-19T11:28:11;101161.63;;;29.45;45.19
75359;BME280;64046;51.978;5.934;2023-06-19T11:30:41;101161.25;;;29.48;44.57
75359;BME280;64046;51.978;5.934;2023-06-19T11:33:20;101168.63;;;29.69;44.03
75359;BME280;64046;51.978;5.934;2023-06-19T11:36:01;101165.00;;;29.62;44.12
75359;BME280;64046;51.978;5.934;2023-06-19T11:38:39;101166.88;;;29.62;44.27
75359;BME280;64046;51.978;5.934;2023-06-19T11:41:14;101173.56;;;29.51;44.57
75359;BME280;64046;51.978;5.934;2023-06-19T11:44:03;101161.94;;;29.80;43.71
75359;BME280;64046;51.978;5.934;2023-06-19T11:46:40;101173.41;;;29.67;43.85
75359;BME280;64046;51.978;5.934;2023-06-19T11:49:14;101161.31;;;29.93;43.15
75359;BME280;64046;51.978;5.934;2023-06-19T11:51:48;101178.16;;;29.80;43.31
75359;BME280;64046;51.978;5.934;2023-06-19T11:54:24;101161.31;;;29.93;42.53
75359;BME280;64046;51.978;5.934;2023-06-19T11:56:58;101166.41;;;29.73;43.08
75359;BME280;64046;51.978;5.934;2023-06-19T11:59:31;101162.84;;;29.73;42.35
75359;BME280;64046;51.978;5.934;2023-06-19T12:02:06;101154.00;;;29.79;42.29
75359;BME280;64046;51.978;5.934;2023-06-19T12:04:37;101158.19;;;29.66;42.01
75359;BME280;64046;51.978;5.934;2023-06-19T12:07:08;101165.38;;;29.74;42.33
75359;BME280;64046;51.978;5.934;2023-06-19T12:09:45;101155.81;;;29.87;41.93
75359;BME280;64046;51.978;5.934;2023-06-19T12:12:17;101163.78;;;29.80;41.41
75359;BME280;64046;51.978;5.934;2023-06-19T12:14:47;101161.38;;;29.55;41.27
75359;BME280;64046;51.978;5.934;2023-06-19T12:17:18;101155.78;;;29.57;41.71
75359;BME280;64046;51.978;5.934;2023-06-19T12:19:53;101149.75;;;29.84;40.91
75359;BME280;64046;51.978;5.934;2023-06-19T12:22:31;101157.19;;;29.97;40.59
75359;BME280;64046;51.978;5.934;2023-06-19T12:25:07;101157.38;;;30.11;39.88
75359;BME280;64046;51.978;5.934;2023-06-19T12:27:40;101155.31;;;29.83;39.92
75359;BME280;64046;51.978;5.934;2023-06-19T12:30:12;101167.63;;;29.71;39.11
75359;BME280;64046;51.978;5.934;2023-06-19T12:32:42;101154.75;;;29.58;39.00
75359;BME280;64046;51.978;5.934;2023-06-19T12:35:17;101150.66;;;29.77;38.58
75359;BME280;64046;51.978;5.934;2023-06-19T12:37:49;101151.50;;;29.62;39.01
75359;BME280;64046;51.978;5.934;2023-06-19T12:40:21;101153.47;;;29.83;39.26
75359;BME280;64046;51.978;5.934;2023-06-19T12:42:53;101159.41;;;29.79;39.00
75359;BME280;64046;51.978;5.934;2023-06-19T12:45:35;101159.34;;;30.02;39.31
75359;BME280;64046;51.978;5.934;2023-06-19T12:48:05;101164.28;;;29.98;39.23
75359;BME280;64046;51.978;5.934;2023-06-19T12:50:38;101167.84;;;29.99;39.02
75359;BME280;64046;51.978;5.934;2023-06-19T12:53:15;101166.72;;;29.93;39.18
75359;BME280;64046;51.978;5.934;2023-06-19T12:55:50;101167.63;;;30.00;39.18
75359;BME280;64046;51.978;5.934;2023-06-19T12:58:21;101170.69;;;29.82;39.25
75359;BME280;64046;51.978;5.934;2023-06-19T13:03:37;101180.22;;;29.93;38.91
75359;BME280;64046;51.978;5.934;2023-06-19T13:06:07;101181.31;;;29.84;38.52
75359;BME280;64046;51.978;5.934;2023-06-19T13:08:37;101180.38;;;29.77;38.68
75359;BME280;64046;51.978;5.934;2023-06-19T13:11:09;101164.66;;;29.95;38.50
75359;BME280;64046;51.978;5.934;2023-06-19T13:13:42;101164.47;;;29.97;38.39
75359;BME280;64046;51.978;5.934;2023-06-19T13:16:12;101176.09;;;29.82;38.22
75359;BME280;64046;51.978;5.934;2023-06-19T13:18:46;101164.84;;;29.94;38.02
75359;BME280;64046;51.978;5.934;2023-06-19T13:21:21;101162.31;;;29.92;38.10
75359;BME280;64046;51.978;5.934;2023-06-19T13:23:54;101169.88;;;29.97;37.98
75359;BME280;64046;51.978;5.934;2023-06-19T13:26:30;101166.72;;;29.93;38.10